sensor_id;sensor_type;location;lat;lon;timestamp;P1;durP1;ratioP1;P2;durP2;ratioP2
4821;SDS011;2425;47.794;13.068;2024-02-14T00:00:02;0.40;;;0.40;;
4821;SDS011;2425;47.794;13.068;2024-02-14T00:02:29;0.40;;;0.40;;
4821;SDS011;2425;47.794;13.068;2024-02-14T00:04:57;0.37;;;0.37;;
4821;SDS011;2425;47.794;13.068;2024-02-14T00:07:24;0.40;;;0.40;;
4821;SDS011;2425;47.794;13.068;2024-02-14T00:09:51;1.80;;;0.30;;
4821;SDS011;2425;47.794;13.068;2024-02-14T00:12:18;0.30;;;0.30;;
4821;SDS011;2425;47.794;13.068;2024-02-14T00:14:45;0.30;;;0.30;;
4821;SDS011;2425;47.794;13.068;2024-02-14T00:17:12;0.40;;;0.40;;
4821;SDS011;2425;47.794;13.068;2024-02-14T00:19:38;0.40;;;0.40;;
4821;SDS011;2425;47.794;13.068;2024-02-14T00:22:07;0.30;;;0.30;;
4821;SDS011;2425;47.794;13.068;2024-02-14T00:24:33;0.40;;;0.40;;
4821;SDS011;2425;47.794;13.068;2024-02-14T00:27:01;0.40;;;0.40;;
4821;SDS011;2425;47.794;13.068;2024-02-14T00:29:28;0.40;;;0.40;;
4821;SDS011;2425;47.794;13.068;2024-02-14T00:31:55;0.37;;;0.37;;
4821;SDS011;2425;47.794;13.068;2024-02-14T00:34:21;0.50;;;0.40;;
4821;SDS011;2425;47.794;13.068;2024-02-14T00:36:49;0.30;;;0.30;;
4821;SDS011;2425;47.794;13.068;2024-02-14T00:39:17;0.33;;;0.33;;
4821;SDS011;2425;47.794;13.068;2024-02-14T00:41:45;0.30;;;0.30;;
4821;SDS011;2425;47.794;13.068;2024-02-14T00:44:12;0.40;;;0.40;;
4821;SDS011;2425;47.794;13.068;2024-02-14T00:46:41;0.40;;;0.40;;
4821;SDS011;2425;47.794;13.068;2024-02-14T00:49:08;0.47;;;0.47;;
4821;SDS011;2425;47.794;13.068;2024-02-14T00:51:36;0.33;;;0.33;;
4821;SDS011;2425;47.794;13.068;2024-02-14T00:54:03;0.40;;;0.40;;
4821;SDS011;2425;47.794;13.068;2024-02-14T00:56:31;0.47;;;0.47;;
4821;SDS011;2425;47.794;13.068;2024-02-14T00:58:58;0.40;;;0.40;;
4821;SDS011;2425;47.794;13.068;2024-02-14T01:01:26;0.30;;;0.30;;
4821;SDS011;2425;47.794;13.068;2024-02-14T01:03:52;0.40;;;0.40;;
4821;SDS011;2425;47.794;13.068;2024-02-14T01:06:19;0.43;;;0.43;;
4821;SDS011;2425;47.794;13.068;2024-02-14T01:08:46;0.30;;;0.30;;
4821;SDS011;2425;47.794;13.068;2024-02-14T01:11:13;0.40;;;0.40;;
4821;SDS011;2425;47.794;13.068;2024-02-14T01:13:41;0.40;;;0.40;;
4821;SDS011;2425;47.794;13.068;2024-02-14T01:16:07;1.17;;;0.30;;
4821;SDS011;2425;47.794;13.068;2024-02-14T01:18:34;0.30;;;0.30;;
4821;SDS011;2425;47.794;13.068;2024-02-14T01:21:02;0.47;;;0.40;;
4821;SDS011;2425;47.794;13.068;2024-02-14T01:23:28;0.30;;;0.30;;
4821;SDS011;2425;47.794;13.068;2024-02-14T01:25:55;0.30;;;0.30;;
4821;SDS011;2425;47.794;13.068;2024-02-14T01:28:22;0.30;;;0.30;;
4821;SDS011;2425;47.794;13.068;2024-02-14T01:30:50;0.40;;;0.40;;
4821;SDS011;2425;47.794;13.068;2024-02-14T01:33:16;0.40;;;0.40;;
4821;SDS011;2425;47.794;13.068;2024-02-14T01:35:43;0.37;;;0.37;;
4821;SDS011;2425;47.794;13.068;2024-02-14T01:38:10;0.30;;;0.30;;
4821;SDS011;2425;47.794;13.068;2024-02-14T01:40:38;0.40;;;0.40;;
4821;SDS011;2425;47.794;13.068;2024-02-14T01:43:04;0.40;;;0.40;;
4821;SDS011;2425;47.794;13.068;2024-02-14T01:45:31;0.43;;;0.30;;
4821;SDS011;2425;47.794;13.068;2024-02-14T01:47:59;0.30;;;0.30;;
4821;SDS011;2425;47.794;13.068;2024-02-14T01:50:26;0.40;;;0.40;;
4821;SDS011;2425;47.794;13.068;2024-02-14T01:52:55;0.40;;;0.40;;
4821;SDS011;2425;47.794;13.068;2024-02-14T01:55:22;0.30;;;0.30;;
4821;SDS011;2425;47.794;13.068;2024-02-14T01:57:49;0.40;;;0.40;;
4821;SDS011;2425;47.794;13.068;2024-02-14T02:00:17;0.30;;;0.30;;
4821;SDS011;2425;47.794;13.068;2024-02-14T02:02:44;0.40;;;0.40;;
4821;SDS011;2425;47.794;13.068;2024-02-14T02:05:13;0.30;;;0.30;;
4821;SDS011;2425;47.794;13.068;2024-02-14T02:07:40;0.50;;;0.33;;
4821;SDS011;2425;47.794;13.068;2024-02-14T02:10:08;0.30;;;0.30;;
4821;SDS011;2425;47.794;13.068;2024-02-14T02:12:36;0.40;;;0.40;;
4821;SDS011;2425;47.794;13.068;2024-02-14T02:15:04;0.30;;;0.30;;
4821;SDS011;2425;47.794;13.068;2024-02-14T02:17:31;0.30;;;0.30;;
4821;SDS011;2425;47.794;13.068;2024-02-14T02:19:59;0.40;;;0.40;;
4821;SDS011;2425;47.794;13.068;2024-02-14T02:22:27;0.40;;;0.40;;
4821;SDS011;2425;47.794;13.068;2024-02-14T02:24:58;0.30;;;0.30;;
4821;SDS011;2425;47.794;13.068;2024-02-14T02:27:25;0.20;;;0.20;;
4821;SDS011;2425;47.794;13.068;2024-02-14T02:29:52;0.30;;;0.30;;
4821;SDS011;2425;47.794;13.068;2024-02-14T02:32:18;0.33;;;0.33;;
4821;SDS011;2425;47.794;13.068;2024-02-14T02:34:45;0.33;;;0.33;;
4821;SDS011;2425;47.794;13.068;2024-02-14T02:37:12;0.20;;;0.20;;
4821;SDS011;2425;47.794;13.068;2024-02-14T02:39:39;0.40;;;0.40;;
4821;SDS011;2425;47.794;13.068;2024-02-14T02:42:07;0.30;;;0.30;;
4821;SDS011;2425;47.794;13.068;2024-02-14T02:44:35;0.30;;;0.30;;
4821;SDS011;2425;47.794;13.068;2024-02-14T02:47:04;0.30;;;0.30;;
4821;SDS011;2425;47.794;13.068;2024-02-14T02:49:31;0.33;;;0.33;;
4821;SDS011;2425;47.794;13.068;2024-02-14T02:51:57;0.40;;;0.40;;
4821;SDS011;2425;47.794;13.068;2024-02-14T02:54:24;0.30;;;0.30;;
4821;SDS011;2425;47.794;13.068;2024-02-14T02:56:51;0.40;;;0.40;;
4821;SDS011;2425;47.794;13.068;2024-02-14T02:59:19;0.33;;;0.33;;
4821;SDS011;2425;47.794;13.068;2024-02-14T03:01:47;0.30;;;0.30;;
4821;SDS011;2425;47.794;13.068;2024-02-14T03:04:14;0.30;;;0.30;;
4821;SDS011;2425;47.794;13.068;2024-02-14T03:06:41;0.30;;;0.30;;
4821;SDS011;2425;47.794;13.068;2024-02-14T03:09:10;0.30;;;0.30;;
4821;SDS011;2425;47.794;13.068;2024-02-14T03:11:37;0.30;;;0.30;;
4821;SDS011;2425;47.794;13.068;2024-02-14T03:14:04;0.30;;;0.30;;
4821;SDS011;2425;47.794;13.068;2024-02-14T03:16:34;0.30;;;0.30;;
4821;SDS011;2425;47.794;13.068;2024-02-14T03:19:02;0.30;;;0.30;;
4821;SDS011;2425;47.794;13.068;2024-02-14T03:21:30;0.37;;;0.37;;
4821;SDS011;2425;47.794;13.068;2024-02-14T03:23:57;0.30;;;0.30;;
4821;SDS011;2425;47.794;13.068;2024-02-14T03:26:24;0.30;;;0.30;;
4821;SDS011;2425;47.794;13.068;2024-02-14T03:28:51;0.30;;;0.30;;
4821;SDS011;2425;47.794;13.068;2024-02-14T03:31:19;0.30;;;0.30;;
4821;SDS011;2425;47.794;13.068;2024-02-14T03:33:47;0.30;;;0.30;;
4821;SDS011;2425;47.794;13.068;2024-02-14T03:36:14;0.20;;;0.20;;
4821;SDS011;2425;47.794;13.068;2024-02-14T03:38:41;0.20;;;0.20;;
4821;SDS011;2425;47.794;13.068;2024-02-14T03:41:07;0.30;;;0.30;;
4821;SDS011;2425;47.794;13.068;2024-02-14T03:43:34;0.33;;;0.33;;
4821;SDS011;2425;47.794;13.068;2024-02-14T03:46:01;0.30;;;0.30;;
4821;SDS011;2425;47.794;13.068;2024-02-14T03:48:28;0.30;;;0.30;;
4821;SDS011;2425;47.794;13.068;2024-02-14T03:50:56;0.37;;;0.37;;
4821;SDS011;2425;47.794;13.068;2024-02-14T03:53:23;0.30;;;0.30;;
4821;SDS011;2425;47.794;13.068;2024-02-14T03:55:50;0.40;;;0.40;;
4821;SDS011;2425;47.794;13.068;2024-02-14T03:58:18;0.33;;;0.33;;
4821;SDS011;2425;47.794;13.068;2024-02-14T04:00:47;0.30;;;0.30;;
4821;SDS011;2425;47.794;13.068;2024-02-14T04:03:15;0.30;;;0.30;;
4821;SDS011;2425;47.794;13.068;2024-02-14T04:05:42;0.20;;;0.20;;
4821;SDS011;2425;47.794;13.068;2024-02-14T04:08:10;0.30;;;0.30;;
4821;SDS011;2425;47.794;13.068;2024-02-14T04:10:37;0.20;;;0.20;;
4821;SDS011;2425;47.794;13.068;2024-02-14T04:13:04;0.30;;;0.30;;
4821;SDS011;2425;47.794;13.068;2024-02-14T04:15:31;0.30;;;0.30;;
4821;SDS011;2425;47.794;13.068;2024-02-14T04:17:58;0.30;;;0.30;;
4821;SDS011;2425;47.794;13.068;2024-02-14T04:20:27;0.30;;;0.30;;
4821;SDS011;2425;47.794;13.068;2024-02-14T04:22:54;0.27;;;0.27;;
4821;SDS011;2425;47.794;13.068;2024-02-14T04:25:22;0.30;;;0.30;;
4821;SDS011;2425;47.794;13.068;2024-02-14T04:27:49;0.30;;;0.30;;
4821;SDS011;2425;47.794;13.068;2024-02-14T04:30:15;0.40;;;0.40;;
4821;SDS011;2425;47.794;13.068;2024-02-14T04:32:42;0.30;;;0.30;;
4821;SDS011;2425;47.794;13.068;2024-02-14T04:35:09;0.30;;;0.30;;
4821;SDS011;2425;47.794;13.068;2024-02-14T04:37:36;0.30;;;0.30;;
4821;SDS011;2425;47.794;13.068;2024-02-14T04:40:03;0.30;;;0.30;;
4821;SDS011;2425;47.794;13.068;2024-02-14T04:42:32;0.30;;;0.30;;
4821;SDS011;2425;47.794;13.068;2024-02-14T04:44:58;0.30;;;0.30;;
4821;SDS011;2425;47.794;13.068;2024-02-14T04:47:25;0.30;;;0.30;;
4821;SDS011;2425;47.794;13.068;2024-02-14T04:49:54;0.30;;;0.30;;
4821;SDS011;2425;47.794;13.068;2024-02-14T04:52:21;0.30;;;0.30;;
4821;SDS011;2425;47.794;13.068;2024-02-14T04:54:48;0.30;;;0.30;;
4821;SDS011;2425;47.794;13.068;2024-02-14T04:57:15;0.30;;;0.30;;
4821;SDS011;2425;47.794;13.068;2024-02-14T04:59:45;0.30;;;0.30;;
4821;SDS011;2425;47.794;13.068;2024-02-14T05:02:11;0.30;;;0.30;;
4821;SDS011;2425;47.794;13.068;2024-02-14T05:04:38;0.30;;;0.30;;
4821;SDS011;2425;47.794;13.068;2024-02-14T05:07:05;0.30;;;0.30;;
4821;SDS011;2425;47.794;13.068;2024-02-14T05:09:32;0.40;;;0.40;;
4821;SDS011;2425;47.794;13.068;2024-02-14T05:11:59;0.30;;;0.30;;
4821;SDS011;2425;47.794;13.068;2024-02-14T05:14:26;0.30;;;0.30;;
4821;SDS011;2425;47.794;13.068;2024-02-14T05:16:57;0.30;;;0.30;;
4821;SDS011;2425;47.794;13.068;2024-02-14T05:19:26;0.30;;;0.30;;
4821;SDS011;2425;47.794;13.068;2024-02-14T05:21:54;0.40;;;0.40;;
4821;SDS011;2425;47.794;13.068;2024-02-14T05:24:20;0.20;;;0.20;;
4821;SDS011;2425;47.794;13.068;2024-02-14T05:26:47;0.30;;;0.30;;
4821;SDS011;2425;47.794;13.068;2024-02-14T05:29:14;0.30;;;0.30;;
4821;SDS011;2425;47.794;13.068;2024-02-14T05:31:44;0.30;;;0.30;;
4821;SDS011;2425;47.794;13.068;2024-02-14T05:34:12;0.30;;;0.30;;
4821;SDS011;2425;47.794;13.068;2024-02-14T05:36:39;0.33;;;0.33;;
4821;SDS011;2425;47.794;13.068;2024-02-14T05:39:07;0.30;;;0.30;;
4821;SDS011;2425;47.794;13.068;2024-02-14T05:41:34;0.30;;;0.30;;
4821;SDS011;2425;47.794;13.068;2024-02-14T05:44:01;0.30;;;0.30;;
4821;SDS011;2425;47.794;13.068;2024-02-14T05:46:28;0.30;;;0.30;;
4821;SDS011;2425;47.794;13.068;2024-02-14T05:48:55;0.30;;;0.30;;
4821;SDS011;2425;47.794;13.068;2024-02-14T05:51:23;0.20;;;0.20;;
4821;SDS011;2425;47.794;13.068;2024-02-14T05:53:50;0.27;;;0.27;;
4821;SDS011;2425;47.794;13.068;2024-02-14T05:56:17;0.27;;;0.27;;
4821;SDS011;2425;47.794;13.068;2024-02-14T05:58:44;0.40;;;0.40;;
4821;SDS011;2425;47.794;13.068;2024-02-14T06:01:10;0.20;;;0.20;;
4821;SDS011;2425;47.794;13.068;2024-02-14T06:03:37;0.30;;;0.30;;
4821;SDS011;2425;47.794;13.068;2024-02-14T06:06:07;0.20;;;0.20;;
4821;SDS011;2425;47.794;13.068;2024-02-14T06:08:43;0.30;;;0.30;;
4821;SDS011;2425;47.794;13.068;2024-02-14T06:11:09;0.30;;;0.30;;
4821;SDS011;2425;47.794;13.068;2024-02-14T06:13:37;0.30;;;0.30;;
4821;SDS011;2425;47.794;13.068;2024-02-14T06:16:04;0.30;;;0.30;;
4821;SDS011;2425;47.794;13.068;2024-02-14T06:18:32;0.50;;;0.50;;
4821;SDS011;2425;47.794;13.068;2024-02-14T06:20:59;0.50;;;0.40;;
4821;SDS011;2425;47.794;13.068;2024-02-14T06:23:26;2.57;;;1.10;;
4821;SDS011;2425;47.794;13.068;2024-02-14T06:25:54;2.97;;;1.40;;
4821;SDS011;2425;47.794;13.068;2024-02-14T06:28:21;5.93;;;1.63;;
4821;SDS011;2425;47.794;13.068;2024-02-14T06:30:47;4.70;;;1.87;;
4821;SDS011;2425;47.794;13.068;2024-02-14T06:33:14;4.53;;;1.93;;
4821;SDS011;2425;47.794;13.068;2024-02-14T06:35:41;6.13;;;1.87;;
4821;SDS011;2425;47.794;13.068;2024-02-14T06:38:08;3.00;;;1.53;;
4821;SDS011;2425;47.794;13.068;2024-02-14T06:40:34;3.10;;;1.40;;
4821;SDS011;2425;47.794;13.068;2024-02-14T06:43:02;3.80;;;1.50;;
4821;SDS011;2425;47.794;13.068;2024-02-14T06:45:31;3.87;;;1.43;;
4821;SDS011;2425;47.794;13.068;2024-02-14T06:47:58;3.10;;;1.37;;
4821;SDS011;2425;47.794;13.068;2024-02-14T06:50:25;1.90;;;1.20;;
4821;SDS011;2425;47.794;13.068;2024-02-14T06:52:53;2.50;;;1.33;;
4821;SDS011;2425;47.794;13.068;2024-02-14T06:55:23;1.33;;;1.00;;
4821;SDS011;2425;47.794;13.068;2024-02-14T06:57:50;1.90;;;1.50;;
4821;SDS011;2425;47.794;13.068;2024-02-14T07:00:18;4.43;;;1.33;;
4821;SDS011;2425;47.794;13.068;2024-02-14T07:02:45;1.80;;;0.83;;
4821;SDS011;2425;47.794;13.068;2024-02-14T07:05:13;2.73;;;1.23;;
4821;SDS011;2425;47.794;13.068;2024-02-14T07:07:40;4.67;;;1.33;;
4821;SDS011;2425;47.794;13.068;2024-02-14T07:10:07;1.67;;;1.23;;
4821;SDS011;2425;47.794;13.068;2024-02-14T07:12:34;1.87;;;1.20;;
4821;SDS011;2425;47.794;13.068;2024-02-14T07:15:02;1.47;;;0.93;;
4821;SDS011;2425;47.794;13.068;2024-02-14T07:17:31;0.80;;;0.80;;
4821;SDS011;2425;47.794;13.068;2024-02-14T07:19:58;2.57;;;0.90;;
4821;SDS011;2425;47.794;13.068;2024-02-14T07:22:25;1.43;;;1.10;;
4821;SDS011;2425;47.794;13.068;2024-02-14T07:24:52;2.30;;;1.00;;
4821;SDS011;2425;47.794;13.068;2024-02-14T07:27:20;1.13;;;0.70;;
4821;SDS011;2425;47.794;13.068;2024-02-14T07:29:47;1.67;;;1.13;;
4821;SDS011;2425;47.794;13.068;2024-02-14T07:32:13;2.83;;;0.80;;
4821;SDS011;2425;47.794;13.068;2024-02-14T07:34:43;1.43;;;0.90;;
4821;SDS011;2425;47.794;13.068;2024-02-14T07:37:09;1.80;;;0.90;;
4821;SDS011;2425;47.794;13.068;2024-02-14T07:39:36;1.40;;;0.80;;
4821;SDS011;2425;47.794;13.068;2024-02-14T07:42:03;1.43;;;0.80;;
4821;SDS011;2425;47.794;13.068;2024-02-14T07:44:31;1.30;;;1.20;;
4821;SDS011;2425;47.794;13.068;2024-02-14T07:46:57;0.77;;;0.50;;
4821;SDS011;2425;47.794;13.068;2024-02-14T07:49:24;1.03;;;0.83;;
4821;SDS011;2425;47.794;13.068;2024-02-14T07:51:52;3.20;;;0.70;;
4821;SDS011;2425;47.794;13.068;2024-02-14T07:54:19;0.60;;;0.60;;
4821;SDS011;2425;47.794;13.068;2024-02-14T07:56:46;1.53;;;1.00;;
4821;SDS011;2425;47.794;13.068;2024-02-14T07:59:12;0.90;;;0.60;;
4821;SDS011;2425;47.794;13.068;2024-02-14T08:01:39;0.97;;;0.60;;
4821;SDS011;2425;47.794;13.068;2024-02-14T08:04:07;0.90;;;0.63;;
4821;SDS011;2425;47.794;13.068;2024-02-14T08:06:34;2.23;;;0.80;;
4821;SDS011;2425;47.794;13.068;2024-02-14T08:09:02;1.47;;;0.60;;
4821;SDS011;2425;47.794;13.068;2024-02-14T08:11:31;1.90;;;0.87;;
4821;SDS011;2425;47.794;13.068;2024-02-14T08:13:58;1.43;;;0.70;;
4821;SDS011;2425;47.794;13.068;2024-02-14T08:16:25;0.60;;;0.60;;
4821;SDS011;2425;47.794;13.068;2024-02-14T08:18:51;1.20;;;0.70;;
4821;SDS011;2425;47.794;13.068;2024-02-14T08:21:23;0.70;;;0.53;;
4821;SDS011;2425;47.794;13.068;2024-02-14T08:23:50;1.00;;;0.80;;
4821;SDS011;2425;47.794;13.068;2024-02-14T08:26:18;1.23;;;0.60;;
4821;SDS011;2425;47.794;13.068;2024-02-14T08:28:45;0.60;;;0.43;;
4821;SDS011;2425;47.794;13.068;2024-02-14T08:31:12;1.90;;;0.67;;
4821;SDS011;2425;47.794;13.068;2024-02-14T08:33:39;0.70;;;0.47;;
4821;SDS011;2425;47.794;13.068;2024-02-14T08:36:06;0.53;;;0.53;;
4821;SDS011;2425;47.794;13.068;2024-02-14T08:38:33;0.87;;;0.47;;
4821;SDS011;2425;47.794;13.068;2024-02-14T08:41:00;1.07;;;0.50;;
4821;SDS011;2425;47.794;13.068;2024-02-14T08:43:28;1.57;;;0.50;;
4821;SDS011;2425;47.794;13.068;2024-02-14T08:45:54;0.40;;;0.30;;
4821;SDS011;2425;47.794;13.068;2024-02-14T08:48:21;0.80;;;0.60;;
4821;SDS011;2425;47.794;13.068;2024-02-14T08:50:48;0.93;;;0.40;;
4821;SDS011;2425;47.794;13.068;2024-02-14T08:53:15;0.60;;;0.60;;
4821;SDS011;2425;47.794;13.068;2024-02-14T08:55:42;1.00;;;0.60;;
4821;SDS011;2425;47.794;13.068;2024-02-14T08:58:09;0.53;;;0.40;;
4821;SDS011;2425;47.794;13.068;2024-02-14T09:00:37;0.63;;;0.50;;
4821;SDS011;2425;47.794;13.068;2024-02-14T09:03:05;0.50;;;0.50;;
4821;SDS011;2425;47.794;13.068;2024-02-14T09:05:32;0.50;;;0.50;;
4821;SDS011;2425;47.794;13.068;2024-02-14T09:07:59;0.60;;;0.60;;
4821;SDS011;2425;47.794;13.068;2024-02-14T09:10:26;0.87;;;0.87;;
4821;SDS011;2425;47.794;13.068;2024-02-14T09:12:53;0.70;;;0.70;;
4821;SDS011;2425;47.794;13.068;2024-02-14T09:15:20;0.43;;;0.43;;
4821;SDS011;2425;47.794;13.068;2024-02-14T09:17:49;0.50;;;0.50;;
4821;SDS011;2425;47.794;13.068;2024-02-14T09:20:17;1.60;;;0.77;;
4821;SDS011;2425;47.794;13.068;2024-02-14T09:22:45;1.17;;;0.63;;
4821;SDS011;2425;47.794;13.068;2024-02-14T09:25:11;1.60;;;0.70;;
4821;SDS011;2425;47.794;13.068;2024-02-14T09:27:39;1.17;;;1.00;;
4821;SDS011;2425;47.794;13.068;2024-02-14T09:30:06;0.80;;;0.80;;
4821;SDS011;2425;47.794;13.068;2024-02-14T09:32:33;0.87;;;0.87;;
4821;SDS011;2425;47.794;13.068;2024-02-14T09:35:02;2.40;;;1.00;;
4821;SDS011;2425;47.794;13.068;2024-02-14T09:37:31;1.10;;;1.00;;
4821;SDS011;2425;47.794;13.068;2024-02-14T09:39:58;2.13;;;0.90;;
4821;SDS011;2425;47.794;13.068;2024-02-14T09:42:27;1.50;;;1.10;;
4821;SDS011;2425;47.794;13.068;2024-02-14T09:44:57;0.87;;;0.87;;
4821;SDS011;2425;47.794;13.068;2024-02-14T09:47:25;1.17;;;0.90;;
4821;SDS011;2425;47.794;13.068;2024-02-14T09:49:52;0.97;;;0.97;;
4821;SDS011;2425;47.794;13.068;2024-02-14T09:52:20;0.97;;;0.97;;
4821;SDS011;2425;47.794;13.068;2024-02-14T09:54:47;2.13;;;0.90;;
4821;SDS011;2425;47.794;13.068;2024-02-14T09:57:14;1.27;;;1.17;;
4821;SDS011;2425;47.794;13.068;2024-02-14T09:59:42;0.83;;;0.73;;
4821;SDS011;2425;47.794;13.068;2024-02-14T10:02:10;1.20;;;1.00;;
4821;SDS011;2425;47.794;13.068;2024-02-14T10:04:37;4.40;;;1.20;;
4821;SDS011;2425;47.794;13.068;2024-02-14T10:07:04;1.00;;;0.77;;
4821;SDS011;2425;47.794;13.068;2024-02-14T10:09:39;1.73;;;1.17;;
4821;SDS011;2425;47.794;13.068;2024-02-14T10:12:07;0.70;;;0.70;;
4821;SDS011;2425;47.794;13.068;2024-02-14T10:14:34;0.83;;;0.83;;
4821;SDS011;2425;47.794;13.068;2024-02-14T10:17:01;3.60;;;0.97;;
4821;SDS011;2425;47.794;13.068;2024-02-14T10:19:28;1.70;;;0.83;;
4821;SDS011;2425;47.794;13.068;2024-02-14T10:21:55;0.70;;;0.70;;
4821;SDS011;2425;47.794;13.068;2024-02-14T10:24:24;0.70;;;0.70;;
4821;SDS011;2425;47.794;13.068;2024-02-14T10:26:52;0.87;;;0.87;;
4821;SDS011;2425;47.794;13.068;2024-02-14T10:29:22;0.90;;;0.90;;
4821;SDS011;2425;47.794;13.068;2024-02-14T10:31:49;0.87;;;0.80;;
4821;SDS011;2425;47.794;13.068;2024-02-14T10:34:16;0.70;;;0.70;;
4821;SDS011;2425;47.794;13.068;2024-02-14T10:36:45;0.53;;;0.53;;
4821;SDS011;2425;47.794;13.068;2024-02-14T10:39:12;0.90;;;0.90;;
4821;SDS011;2425;47.794;13.068;2024-02-14T10:41:40;0.70;;;0.70;;
4821;SDS011;2425;47.794;13.068;2024-02-14T10:44:09;0.60;;;0.60;;
4821;SDS011;2425;47.794;13.068;2024-02-14T10:46:37;0.50;;;0.50;;
4821;SDS011;2425;47.794;13.068;2024-02-14T10:49:06;0.93;;;0.90;;
4821;SDS011;2425;47.794;13.068;2024-02-14T10:51:34;0.70;;;0.70;;
4821;SDS011;2425;47.794;13.068;2024-02-14T10:54:03;1.13;;;0.60;;
4821;SDS011;2425;47.794;13.068;2024-02-14T10:56:32;0.60;;;0.60;;
4821;SDS011;2425;47.794;13.068;2024-02-14T10:58:58;2.80;;;0.50;;
4821;SDS011;2425;47.794;13.068;2024-02-14T11:01:27;0.60;;;0.60;;
4821;SDS011;2425;47.794;13.068;2024-02-14T11:03:57;0.73;;;0.60;;
4821;SDS011;2425;47.794;13.068;2024-02-14T11:06:23;0.40;;;0.40;;
4821;SDS011;2425;47.794;13.068;2024-02-14T11:08:57;0.67;;;0.67;;
4821;SDS011;2425;47.794;13.068;2024-02-14T11:11:27;0.60;;;0.60;;
4821;SDS011;2425;47.794;13.068;2024-02-14T11:13:54;0.60;;;0.60;;
4821;SDS011;2425;47.794;13.068;2024-02-14T11:16:23;0.50;;;0.50;;
4821;SDS011;2425;47.794;13.068;2024-02-14T11:18:54;1.17;;;0.70;;
4821;SDS011;2425;47.794;13.068;2024-02-14T11:21:34;0.63;;;0.63;;
4821;SDS011;2425;47.794;13.068;2024-02-14T11:24:04;0.50;;;0.50;;
4821;SDS011;2425;47.794;13.068;2024-02-14T11:26:37;0.63;;;0.63;;
4821;SDS011;2425;47.794;13.068;2024-02-14T11:29:05;0.50;;;0.50;;
4821;SDS011;2425;47.794;13.068;2024-02-14T11:31:32;0.50;;;0.50;;
4821;SDS011;2425;47.794;13.068;2024-02-14T11:34:04;0.40;;;0.40;;
4821;SDS011;2425;47.794;13.068;2024-02-14T11:36:31;0.63;;;0.63;;
4821;SDS011;2425;47.794;13.068;2024-02-14T11:38:58;0.70;;;0.70;;
4821;SDS011;2425;47.794;13.068;2024-02-14T11:41:27;0.60;;;0.43;;
4821;SDS011;2425;47.794;13.068;2024-02-14T11:43:53;0.50;;;0.50;;
4821;SDS011;2425;47.794;13.068;2024-02-14T11:46:20;0.97;;;0.50;;
4821;SDS011;2425;47.794;13.068;2024-02-14T11:48:47;0.50;;;0.50;;
4821;SDS011;2425;47.794;13.068;2024-02-14T11:51:16;1.17;;;0.40;;
4821;SDS011;2425;47.794;13.068;2024-02-14T11:53:43;0.50;;;0.50;;
4821;SDS011;2425;47.794;13.068;2024-02-14T11:56:11;0.40;;;0.40;;
4821;SDS011;2425;47.794;13.068;2024-02-14T11:58:38;0.30;;;0.30;;
4821;SDS011;2425;47.794;13.068;2024-02-14T12:01:04;0.50;;;0.50;;
4821;SDS011;2425;47.794;13.068;2024-02-14T12:03:32;0.60;;;0.60;;
4821;SDS011;2425;47.794;13.068;2024-02-14T12:06:00;0.60;;;0.60;;
4821;SDS011;2425;47.794;13.068;2024-02-14T12:08:29;0.30;;;0.30;;
4821;SDS011;2425;47.794;13.068;2024-02-14T12:10:56;0.43;;;0.43;;
4821;SDS011;2425;47.794;13.068;2024-02-14T12:13:23;0.50;;;0.50;;
4821;SDS011;2425;47.794;13.068;2024-02-14T12:15:50;0.40;;;0.40;;
4821;SDS011;2425;47.794;13.068;2024-02-14T12:18:18;0.50;;;0.50;;
4821;SDS011;2425;47.794;13.068;2024-02-14T12:20:46;0.40;;;0.40;;
4821;SDS011;2425;47.794;13.068;2024-02-14T12:23:14;0.40;;;0.40;;
4821;SDS011;2425;47.794;13.068;2024-02-14T12:25:44;0.73;;;0.50;;
4821;SDS011;2425;47.794;13.068;2024-02-14T12:28:13;0.43;;;0.43;;
4821;SDS011;2425;47.794;13.068;2024-02-14T12:30:43;0.93;;;0.57;;
4821;SDS011;2425;47.794;13.068;2024-02-14T12:33:15;0.40;;;0.40;;
4821;SDS011;2425;47.794;13.068;2024-02-14T12:35:42;0.60;;;0.60;;
4821;SDS011;2425;47.794;13.068;2024-02-14T12:38:10;0.40;;;0.40;;
4821;SDS011;2425;47.794;13.068;2024-02-14T12:40:37;0.87;;;0.50;;
4821;SDS011;2425;47.794;13.068;2024-02-14T12:43:08;0.60;;;0.60;;
4821;SDS011;2425;47.794;13.068;2024-02-14T12:45:35;0.53;;;0.53;;
4821;SDS011;2425;47.794;13.068;2024-02-14T12:48:02;0.40;;;0.40;;
4821;SDS011;2425;47.794;13.068;2024-02-14T12:50:30;0.40;;;0.40;;
4821;SDS011;2425;47.794;13.068;2024-02-14T12:52:56;0.40;;;0.40;;
4821;SDS011;2425;47.794;13.068;2024-02-14T12:55:23;0.50;;;0.50;;
4821;SDS011;2425;47.794;13.068;2024-02-14T12:57:50;0.40;;;0.40;;
4821;SDS011;2425;47.794;13.068;2024-02-14T13:00:19;0.47;;;0.47;;
4821;SDS011;2425;47.794;13.068;2024-02-14T13:02:46;0.40;;;0.40;;
4821;SDS011;2425;47.794;13.068;2024-02-14T13:05:13;1.33;;;0.60;;
4821;SDS011;2425;47.794;13.068;2024-02-14T13:07:41;0.40;;;0.40;;
4821;SDS011;2425;47.794;13.068;2024-02-14T13:10:07;0.30;;;0.30;;
4821;SDS011;2425;47.794;13.068;2024-02-14T13:12:35;0.40;;;0.40;;
4821;SDS011;2425;47.794;13.068;2024-02-14T13:15:02;0.37;;;0.30;;
4821;SDS011;2425;47.794;13.068;2024-02-14T13:17:31;0.43;;;0.43;;
4821;SDS011;2425;47.794;13.068;2024-02-14T13:19:58;0.30;;;0.30;;
4821;SDS011;2425;47.794;13.068;2024-02-14T13:22:24;0.40;;;0.40;;
4821;SDS011;2425;47.794;13.068;2024-02-14T13:24:51;0.37;;;0.37;;
4821;SDS011;2425;47.794;13.068;2024-02-14T13:27:18;0.43;;;0.43;;
4821;SDS011;2425;47.794;13.068;2024-02-14T13:29:46;0.33;;;0.33;;
4821;SDS011;2425;47.794;13.068;2024-02-14T13:32:13;0.30;;;0.30;;
4821;SDS011;2425;47.794;13.068;2024-02-14T13:34:41;0.30;;;0.30;;
4821;SDS011;2425;47.794;13.068;2024-02-14T13:37:09;0.40;;;0.40;;
4821;SDS011;2425;47.794;13.068;2024-02-14T13:39:35;0.30;;;0.30;;
4821;SDS011;2425;47.794;13.068;2024-02-14T13:42:02;0.40;;;0.40;;
4821;SDS011;2425;47.794;13.068;2024-02-14T13:44:30;0.50;;;0.50;;
4821;SDS011;2425;47.794;13.068;2024-02-14T13:46:56;0.40;;;0.40;;
4821;SDS011;2425;47.794;13.068;2024-02-14T13:49:24;0.40;;;0.40;;
4821;SDS011;2425;47.794;13.068;2024-02-14T13:51:53;0.40;;;0.40;;
4821;SDS011;2425;47.794;13.068;2024-02-14T13:54:19;0.40;;;0.40;;
4821;SDS011;2425;47.794;13.068;2024-02-14T13:56:48;0.30;;;0.30;;
4821;SDS011;2425;47.794;13.068;2024-02-14T13:59:15;0.50;;;0.50;;
4821;SDS011;2425;47.794;13.068;2024-02-14T14:01:43;0.37;;;0.37;;
4821;SDS011;2425;47.794;13.068;2024-02-14T14:04:10;0.40;;;0.40;;
4821;SDS011;2425;47.794;13.068;2024-02-14T14:06:37;0.40;;;0.37;;
4821;SDS011;2425;47.794;13.068;2024-02-14T14:09:05;0.83;;;0.83;;
4821;SDS011;2425;47.794;13.068;2024-02-14T14:11:34;0.30;;;0.30;;
4821;SDS011;2425;47.794;13.068;2024-02-14T14:14:01;0.40;;;0.40;;
4821;SDS011;2425;47.794;13.068;2024-02-14T14:16:28;0.43;;;0.43;;
4821;SDS011;2425;47.794;13.068;2024-02-14T14:18:55;0.40;;;0.40;;
4821;SDS011;2425;47.794;13.068;2024-02-14T14:21:23;0.30;;;0.30;;
4821;SDS011;2425;47.794;13.068;2024-02-14T14:23:50;0.50;;;0.50;;
4821;SDS011;2425;47.794;13.068;2024-02-14T14:26:18;0.30;;;0.30;;
4821;SDS011;2425;47.794;13.068;2024-02-14T14:28:45;0.30;;;0.30;;
4821;SDS011;2425;47.794;13.068;2024-02-14T14:31:12;0.30;;;0.30;;
4821;SDS011;2425;47.794;13.068;2024-02-14T14:33:38;0.37;;;0.37;;
4821;SDS011;2425;47.794;13.068;2024-02-14T14:36:05;0.77;;;0.33;;
4821;SDS011;2425;47.794;13.068;2024-02-14T14:38:33;0.30;;;0.30;;
4821;SDS011;2425;47.794;13.068;2024-02-14T14:41:01;0.50;;;0.50;;
4821;SDS011;2425;47.794;13.068;2024-02-14T14:43:29;0.30;;;0.30;;
4821;SDS011;2425;47.794;13.068;2024-02-14T14:45:55;0.40;;;0.40;;
4821;SDS011;2425;47.794;13.068;2024-02-14T14:48:23;0.50;;;0.50;;
4821;SDS011;2425;47.794;13.068;2024-02-14T14:50:49;0.30;;;0.30;;
4821;SDS011;2425;47.794;13.068;2024-02-14T14:53:16;0.40;;;0.40;;
4821;SDS011;2425;47.794;13.068;2024-02-14T14:55:50;0.30;;;0.30;;
4821;SDS011;2425;47.794;13.068;2024-02-14T14:58:19;0.40;;;0.40;;
4821;SDS011;2425;47.794;13.068;2024-02-14T15:00:49;0.40;;;0.40;;